Cecil, Wisconsin
Current Conditions -  °F | °C
As of 4:35 AM on Saturday 01 Nov 2014 (Local Time) from KEZS Reporting Station
Clear Clear  
Wind Chill: 22°   Ceiling: Unl
Heat Index: 28°   Visibility: 10mi
Dew Point: 20°   Wind: 5mph
Humidity: 72%   Direction: 300°WNW
Pressure: 30.46"   Gusts: NA
Location:  44.81°N, 88.45°W
Report Text: KEZS 010935Z AUTO 30004KT 10SM CLR M02/M07 A3046 RMK AO2 T10241069
Loading
Personal Weather Stations






























Interactive Weather Map New forecast layout! Learn more

10-Day Weather Forecast

Advertisements
Track Severe Weather on mobile